Seaview, Virginia
Current Conditions -  °F | °C
As of 5:58 AM on Friday 24 Oct 2014 (Local Time) from KLFI Reporting Station
Clear Clear  
Wind Chill: 53°   Ceiling: Unl
Heat Index: 53°   Visibility: 10mi
Dew Point: 44°   Wind: 9mph
Humidity: 71%   Direction: 290°WNW
Pressure: 29.95"   Gusts: NA
Location:  37.26°N, 75.95°W
Report Text: KLFI 240958Z AUTO 29008KT 10SM CLR 12/07 A2995 RMK AO2 SLP149 T01170066 $
Loading
Personal Weather Stations






























Interactive Weather Map
Tropical Storm Tracking
New forecast layout! Learn more

10-Day Weather Forecast

Advertisements
Track Severe Weather on mobile